Time;durP1;ratioP1;P1;durP2;ratioP2;P2;SDS_P1;SDS_P2;PMS_P1;PMS_P2;Temp;Humidity;BMP_temperature;BMP_pressure;BME280_temperature;BME280_humidity;BME280_pressure;Samples;Min_cycle;Max_cycle;Signal;HPM_P1;HPM_P2
2023/10/26 00:00:49;;;;;;;12.52;6.63;;;;;;;10.79;100.00;98268.53;4985536;28;20515;-43
2023/10/26 00:03:36;;;;;;;15.05;5.63;;;;;;;10.80;100.00;98265.34;4976887;28;20512;-43
2023/10/26 00:06:24;;;;;;;11.68;5.68;;;;;;;10.82;100.00;98251.13;4984373;28;20602;-43
2023/10/26 00:09:11;;;;;;;14.60;4.35;;;;;;;10.82;100.00;98267.72;4984351;28;20042;-43
2023/10/26 00:11:58;;;;;;;10.30;4.90;;;;;;;10.82;100.00;98257.44;4985808;28;20136;-43
2023/10/26 00:14:45;;;;;;;7.63;4.50;;;;;;;10.83;100.00;98258.22;4973336;28;20658;-43
2023/10/26 00:17:32;;;;;;;12.48;4.63;;;;;;;10.83;100.00;98252.69;4984231;28;20050;-43
2023/10/26 00:20:19;;;;;;;13.02;4.63;;;;;;;10.83;100.00;98255.44;4985202;28;20054;-47
2023/10/26 00:23:07;;;;;;;11.13;4.78;;;;;;;10.83;100.00;98260.97;4984755;28;20400;-43
2023/10/26 00:25:54;;;;;;;12.32;4.45;;;;;;;10.84;100.00;98260.59;4984110;28;20054;-43
2023/10/26 00:28:41;;;;;;;10.15;4.18;;;;;;;10.84;100.00;98255.06;4985268;28;20050;-44
2023/10/26 00:31:28;;;;;;;8.40;4.03;;;;;;;10.83;100.00;98259.00;4984657;28;20112;-43
2023/10/26 00:34:15;;;;;;;8.93;3.25;;;;;;;10.80;100.00;98242.44;4974276;28;20515;-43
2023/10/26 00:37:02;;;;;;;7.68;2.92;;;;;;;10.76;100.00;98233.38;4983581;28;20050;-45
2023/10/26 00:39:49;;;;;;;9.15;3.40;;;;;;;10.73;100.00;98242.47;4987165;28;20070;-50
2023/10/26 00:42:36;;;;;;;6.22;3.22;;;;;;;10.68;100.00;98235.41;4984538;28;20051;-44
2023/10/26 00:45:23;;;;;;;5.60;2.30;;;;;;;10.64;100.00;98229.13;4993779;28;20050;-47
2023/10/26 00:48:10;;;;;;;11.80;2.40;;;;;;;10.62;100.00;98241.75;4990018;28;20054;-43
2023/10/26 00:50:57;;;;;;;5.32;3.28;;;;;;;10.58;100.00;98235.47;4997184;28;20058;-43
2023/10/26 00:53:45;;;;;;;6.70;2.03;;;;;;;10.55;100.00;98217.72;4990263;28;20488;-43
2023/10/26 00:56:33;;;;;;;5.82;2.95;;;;;;;10.53;100.00;98206.28;4987810;28;20046;-44
2023/10/26 00:59:20;;;;;;;3.78;2.45;;;;;;;10.52;100.00;98209.44;4987796;28;20050;-43
2023/10/26 01:02:07;;;;;;;3.63;1.67;;;;;;;10.48;100.00;98200.38;4988448;28;20508;-43
2023/10/26 01:04:54;;;;;;;5.60;1.92;;;;;;;10.45;100.00;98192.91;4987931;28;20042;-45
2023/10/26 01:07:41;;;;;;;6.63;1.98;;;;;;;10.42;100.00;98193.69;4988692;28;20050;-43
2023/10/26 01:10:28;;;;;;;3.70;2.15;;;;;;;10.38;100.00;98194.50;4987775;28;20054;-42
2023/10/26 01:13:17;;;;;;;5.07;2.38;;;;;;;10.35;100.00;98195.31;4987547;28;20039;-43
2023/10/26 01:16:04;;;;;;;4.25;2.70;;;;;;;10.33;100.00;98202.44;4987691;28;20057;-43
2023/10/26 01:18:51;;;;;;;8.15;2.30;;;;;;;10.32;100.00;98200.88;4987554;28;20049;-42
2023/10/26 01:21:52;;;;;;;6.10;2.72;;;;;;;10.31;100.00;98208.41;4988315;28;20518;-45
2023/10/26 01:24:39;;;;;;;5.13;2.15;;;;;;;10.31;100.00;98205.63;4977790;28;20152;-45
2023/10/26 01:27:26;;;;;;;6.60;2.72;;;;;;;10.35;100.00;98206.38;4987048;28;20614;-43
2023/10/26 01:30:14;;;;;;;5.57;2.60;;;;;;;10.37;100.00;98214.28;4988890;28;20058;-43
2023/10/26 01:33:01;;;;;;;9.07;3.03;;;;;;;10.39;100.00;98212.69;4988499;28;20062;-43
2023/10/26 01:35:48;;;;;;;6.68;2.33;;;;;;;10.40;100.00;98208.72;4976980;28;20128;-43
2023/10/26 01:38:36;;;;;;;7.18;2.42;;;;;;;10.39;100.00;98196.09;4987166;28;20470;-43
2023/10/26 01:41:23;;;;;;;5.43;2.30;;;;;;;10.37;100.00;98192.97;4987332;28;20048;-43
2023/10/26 01:44:10;;;;;;;9.98;3.58;;;;;;;10.35;100.00;98172.44;4986778;28;20050;-43
2023/10/26 01:46:57;;;;;;;5.22;2.42;;;;;;;10.33;100.00;98181.13;4987492;28;20047;-44
2023/10/26 01:49:44;;;;;;;1.98;1.70;;;;;;;10.34;100.00;98173.59;4984310;28;20099;-44
2023/10/26 01:52:31;;;;;;;3.53;1.63;;;;;;;10.34;100.00;98173.59;4988222;28;20042;-43
2023/10/26 01:55:18;;;;;;;8.43;2.30;;;;;;;10.32;100.00;98168.50;4987240;28;20050;-44
2023/10/26 01:58:05;;;;;;;3.15;2.20;;;;;;;10.33;100.00;98167.28;4987682;28;20046;-43
2023/10/26 02:00:52;;;;;;;6.40;2.85;;;;;;;10.34;100.00;98166.09;4988532;28;20046;-47
2023/10/26 02:03:39;;;;;;;6.30;3.22;;;;;;;10.35;100.00;98173.19;4984611;28;20133;-44
2023/10/26 02:06:27;;;;;;;5.88;2.65;;;;;;;10.35;100.00;98166.91;4986496;28;20038;-44
2023/10/26 02:09:14;;;;;;;5.50;2.22;;;;;;;10.35;100.00;98162.13;4985560;28;20089;-43
2023/10/26 02:12:01;;;;;;;3.60;2.03;;;;;;;10.36;100.00;98157.38;4986160;28;20058;-43
2023/10/26 02:14:48;;;;;;;5.85;2.20;;;;;;;10.35;100.00;98142.78;4976404;28;20046;-44
2023/10/26 02:17:36;;;;;;;1.67;1.58;;;;;;;10.35;100.00;98142.78;4984656;28;20054;-47
2023/10/26 02:20:23;;;;;;;6.15;2.08;;;;;;;10.31;100.00;98136.50;4986680;28;20042;-44
2023/10/26 02:23:10;;;;;;;2.85;0.98;;;;;;;10.26;100.00;98136.94;4979684;28;20058;-44
2023/10/26 02:25:57;;;;;;;3.60;1.08;;;;;;;10.21;100.00;98131.03;4986205;28;20062;-43
2023/10/26 02:28:44;;;;;;;2.00;0.85;;;;;;;10.15;100.00;98140.94;4983040;28;20586;-43
2023/10/26 02:31:31;;;;;;;1.48;0.40;;;;;;;10.10;100.00;98127.53;4986690;28;20129;-43
2023/10/26 02:34:18;;;;;;;1.05;0.43;;;;;;;10.04;100.00;98123.63;4986833;28;20054;-46
2023/10/26 02:37:05;;;;;;;0.22;0.22;;;;;;;9.99;100.00;98124.84;4987299;28;20061;-43
2023/10/26 02:39:52;;;;;;;2.08;0.38;;;;;;;9.94;100.00;98119.75;4988056;28;20038;-43
2023/10/26 02:42:39;;;;;;;1.48;0.50;;;;;;;9.91;100.00;98125.28;4986943;28;20059;-44
2023/10/26 02:45:26;;;;;;;1.42;0.40;;;;;;;9.88;100.00;98118.59;4976990;28;20721;-42
2023/10/26 02:48:14;;;;;;;1.63;0.45;;;;;;;9.86;100.00;98115.44;4981709;28;20066;-44
2023/10/26 02:51:01;;;;;;;1.20;0.30;;;;;;;9.83;100.00;98105.19;4965338;28;20054;-43
2023/10/26 02:53:48;;;;;;;0.50;0.30;;;;;;;9.81;100.00;98104.81;4986664;28;20494;-48
2023/10/26 02:56:35;;;;;;;1.75;0.20;;;;;;;9.82;100.00;98094.56;4985048;28;20049;-44
2023/10/26 02:59:22;;;;;;;3.00;1.85;;;;;;;9.81;100.00;98099.28;4982901;28;20116;-43
2023/10/26 03:02:09;;;;;;;3.15;1.00;;;;;;;9.83;100.00;98091.38;5092968;22;20061;-45
2023/10/26 03:04:56;;;;;;;0.75;0.30;;;;;;;9.82;100.00;98084.28;5004305;28;20050;-45
2023/10/26 03:07:46;;;;;;;0.73;0.20;;;;;;;9.84;100.00;98083.88;5005079;28;20407;-45
2023/10/26 03:10:33;;;;;;;3.08;0.65;;;;;;;9.84;100.00;98079.16;5003703;28;20133;-50
2023/10/26 03:13:20;;;;;;;0.63;0.30;;;;;;;9.83;100.00;98074.78;4996761;28;20053;-45
2023/10/26 03:16:07;;;;;;;0.28;0.22;;;;;;;9.82;100.00;98073.25;5006064;28;20511;-45
2023/10/26 03:18:54;;;;;;;1.23;0.30;;;;;;;9.79;100.00;98071.28;5004711;28;20151;-45
2023/10/26 03:21:41;;;;;;;0.95;0.47;;;;;;;9.77;100.00;98066.16;4996733;28;20058;-44
2023/10/26 03:24:28;;;;;;;1.60;0.40;;;;;;;9.74;100.00;98066.94;4995719;28;20042;-45
2023/10/26 03:27:15;;;;;;;2.25;0.35;;;;;;;9.72;100.00;98063.81;5005279;28;20518;-45
2023/10/26 03:30:06;;;;;;;0.30;0.30;;;;;;;9.71;100.00;98067.00;5004987;28;20050;-47
2023/10/26 03:32:53;;;;;;;1.95;0.40;;;;;;;9.68;100.00;98068.59;4996529;28;20568;-45
2023/10/26 03:35:40;;;;;;;1.15;0.45;;;;;;;9.65;100.00;98060.31;4991729;28;20050;-46
2023/10/26 03:38:27;;;;;;;2.88;0.30;;;;;;;9.61;100.00;98065.84;5001493;28;20733;-49
2023/10/26 03:41:15;;;;;;;1.50;0.40;;;;;;;9.59;100.00;98064.69;5005206;28;20111;-50
2023/10/26 03:44:03;;;;;;;2.13;0.50;;;;;;;9.58;100.00;98054.84;4998338;28;20097;-47
2023/10/26 03:46:52;;;;;;;1.58;0.30;;;;;;;9.55;100.00;98058.41;5003105;28;20463;-47
2023/10/26 03:49:39;;;;;;;0.98;0.30;;;;;;;9.51;100.00;98052.09;4992388;28;20050;-49
2023/10/26 03:52:26;;;;;;;2.10;0.40;;;;;;;9.48;100.00;98061.97;5003823;28;20050;-45
2023/10/26 03:55:13;;;;;;;1.67;0.47;;;;;;;9.48;100.00;98052.91;4993391;28;20049;-49
2023/10/26 03:58:00;;;;;;;0.57;0.32;;;;;;;9.46;100.00;98053.31;5005495;28;20042;-45
2023/10/26 04:00:47;;;;;;;0.95;0.30;;;;;;;9.44;100.00;98046.63;5003820;28;20060;-46
2023/10/26 04:03:34;;;;;;;0.40;0.28;;;;;;;9.42;100.00;98038.75;4997498;28;20543;-45
2023/10/26 04:06:21;;;;;;;0.63;0.43;;;;;;;9.41;100.00;98042.69;5004739;28;20042;-45
2023/10/26 04:09:08;;;;;;;0.43;0.43;;;;;;;9.40;100.00;98038.34;5005393;28;20107;-45
2023/10/26 04:11:55;;;;;;;1.98;0.38;;;;;;;9.40;100.00;98049.41;5005185;28;20065;-45
2023/10/26 04:14:43;;;;;;;3.75;0.40;;;;;;;9.40;100.00;98048.63;5003252;28;20038;-45
2023/10/26 04:17:30;;;;;;;1.85;0.38;;;;;;;9.39;100.00;98047.06;5004536;28;20049;-46
2023/10/26 04:20:17;;;;;;;3.72;0.80;;;;;;;9.37;100.00;98044.69;5012516;28;20081;-49
2023/10/26 04:23:04;;;;;;;3.65;0.60;;;;;;;9.37;100.00;98043.91;5009956;28;20057;-45
2023/10/26 04:25:52;;;;;;;1.42;0.98;;;;;;;9.34;100.00;98036.44;5004435;28;20049;-45
2023/10/26 04:28:41;;;;;;;2.17;0.43;;;;;;;9.32;100.00;98027.78;5010446;28;20127;-46
2023/10/26 04:31:37;;;;;;;2.17;0.20;;;;;;;9.31;100.00;98023.44;4996852;28;20057;-48
2023/10/26 04:34:25;;;;;;;1.83;0.40;;;;;;;9.28;100.00;98021.47;5007946;28;20065;-45
2023/10/26 04:37:14;;;;;;;2.03;0.50;;;;;;;9.24;100.00;98021.47;5013019;28;20428;-45
2023/10/26 04:40:01;;;;;;;1.40;0.50;;;;;;;9.22;100.00;98015.59;5010513;28;20107;-48
2023/10/26 04:42:49;;;;;;;1.80;0.50;;;;;;;9.22;100.00;98021.09;5008305;28;20041;-47
2023/10/26 04:45:36;;;;;;;1.63;0.32;;;;;;;9.22;100.00;98017.53;4997612;28;20050;-46
2023/10/26 04:48:24;;;;;;;3.55;0.35;;;;;;;9.22;100.00;98007.31;5006253;28;20044;-45
2023/10/26 04:51:11;;;;;;;2.50;0.30;;;;;;;9.20;100.00;98015.19;4994141;28;20534;-45
2023/10/26 04:53:58;;;;;;;0.65;0.30;;;;;;;9.22;100.00;98014.78;5007618;28;20435;-45
2023/10/26 04:56:45;;;;;;;1.17;0.63;;;;;;;9.22;100.00;98012.81;5007005;28;20426;-46
2023/10/26 04:59:32;;;;;;;0.30;0.25;;;;;;;9.22;100.00;98014.78;5003132;28;20053;-45
2023/10/26 05:02:19;;;;;;;1.17;0.20;;;;;;;9.22;100.00;98012.03;5007059;28;20062;-48
2023/10/26 05:05:07;;;;;;;0.90;0.35;;;;;;;9.22;100.00;98012.03;5004146;28;20046;-46
2023/10/26 05:07:54;;;;;;;5.00;0.50;;;;;;;9.19;100.00;98014.41;5014939;28;20195;-45
2023/10/26 05:10:41;;;;;;;1.38;0.30;;;;;;;9.17;100.00;98016.78;4987961;28;20143;-50
2023/10/26 05:13:29;;;;;;;0.82;0.30;;;;;;;9.17;100.00;98008.50;5007385;28;20072;-44
2023/10/26 05:16:16;;;;;;;1.80;0.52;;;;;;;9.16;100.00;98001.41;5004195;28;20049;-45
2023/10/26 05:19:03;;;;;;;0.65;0.40;;;;;;;9.18;100.00;98001.81;5006270;28;20049;-47
2023/10/26 05:21:50;;;;;;;1.30;0.50;;;;;;;9.19;100.00;98005.34;5007416;28;20038;-45
2023/10/26 05:24:38;;;;;;;2.20;0.60;;;;;;;9.19;100.00;98003.38;5004660;28;20095;-45
2023/10/26 05:27:25;;;;;;;1.20;0.40;;;;;;;9.19;100.00;98002.56;5003091;28;20181;-46
2023/10/26 05:30:12;;;;;;;1.38;0.45;;;;;;;9.17;100.00;97989.19;5006201;28;20103;-47
2023/10/26 05:33:00;;;;;;;1.38;0.40;;;;;;;9.17;100.00;97993.91;5003575;28;20079;-46
2023/10/26 05:35:47;;;;;;;0.90;0.57;;;;;;;9.14;100.00;97995.50;5006482;28;20135;-45
2023/10/26 05:38:34;;;;;;;0.65;0.55;;;;;;;9.12;100.00;97991.59;5004400;28;20193;-44
2023/10/26 05:41:21;;;;;;;1.00;0.75;;;;;;;9.10;100.00;97999.50;5006896;28;20042;-45
2023/10/26 05:44:08;;;;;;;1.38;0.80;;;;;;;9.09;100.00;97984.09;4993156;28;20050;-47
2023/10/26 05:46:55;;;;;;;0.55;0.55;;;;;;;9.06;100.00;97974.66;5009048;28;20117;-44
2023/10/26 05:49:42;;;;;;;0.82;0.82;;;;;;;9.07;100.00;97976.25;5006111;28;20842;-48
2023/10/26 05:52:29;;;;;;;3.35;1.00;;;;;;;9.09;100.00;97982.13;4998443;28;20046;-45
2023/10/26 05:55:16;;;;;;;2.08;1.17;;;;;;;9.10;100.00;97980.97;5002197;28;20049;-45
2023/10/26 05:58:03;;;;;;;3.05;2.38;;;;;;;9.11;100.00;97963.19;5005469;28;20038;-45
2023/10/26 06:00:51;;;;;;;3.03;1.85;;;;;;;9.14;100.00;97973.44;5005622;28;20148;-49
2023/10/26 06:03:38;;;;;;;1.60;1.27;;;;;;;9.16;100.00;97960.00;5006541;28;20042;-44
2023/10/26 06:06:25;;;;;;;3.35;1.20;;;;;;;9.19;100.00;97953.69;5006281;28;20415;-45
2023/10/26 06:09:12;;;;;;;2.25;1.65;;;;;;;9.24;100.00;97957.22;5002448;28;20049;-45
2023/10/26 06:11:59;;;;;;;1.55;1.38;;;;;;;9.27;100.00;97956.38;5007794;28;20050;-45
2023/10/26 06:14:46;;;;;;;2.40;1.33;;;;;;;9.28;100.00;97960.72;5004167;28;20053;-45
2023/10/26 06:17:33;;;;;;;1.83;1.10;;;;;;;9.31;100.00;97954.41;4993384;28;20050;-45
2023/10/26 06:20:22;;;;;;;2.20;1.70;;;;;;;9.32;100.00;97950.47;5002669;28;20064;-49
2023/10/26 06:23:11;;;;;;;1.38;1.17;;;;;;;9.33;100.00;97960.31;5003174;28;20547;-44
2023/10/26 06:25:59;;;;;;;1.70;1.33;;;;;;;9.35;100.00;97955.16;4997775;28;20054;-45
2023/10/26 06:28:48;;;;;;;4.43;1.33;;;;;;;9.37;100.00;97952.81;5007476;28;20062;-45
2023/10/26 06:31:35;;;;;;;1.73;1.35;;;;;;;9.38;100.00;97946.84;4999993;28;20054;-45
2023/10/26 06:34:22;;;;;;;4.00;1.38;;;;;;;9.40;100.00;97952.75;5015131;28;20408;-46
2023/10/26 06:37:09;;;;;;;2.55;1.90;;;;;;;9.41;100.00;97945.25;5007273;28;20560;-45
2023/10/26 06:39:56;;;;;;;1.73;1.27;;;;;;;9.40;100.00;97947.22;5006689;28;20046;-45
2023/10/26 06:42:43;;;;;;;3.80;1.50;;;;;;;9.41;100.00;97943.28;5003399;28;20052;-46
2023/10/26 06:45:31;;;;;;;1.48;1.38;;;;;;;9.42;100.00;97946.84;5011182;28;20046;-47
2023/10/26 06:48:21;;;;;;;2.38;1.80;;;;;;;9.43;100.00;97940.13;5006510;28;20070;-51
2023/10/26 06:51:08;;;;;;;3.92;1.48;;;;;;;9.45;100.00;97949.56;5004956;28;20057;-45
2023/10/26 06:53:55;;;;;;;3.30;1.33;;;;;;;9.47;100.00;97954.69;5004504;28;20057;-46
2023/10/26 06:56:42;;;;;;;1.80;1.70;;;;;;;9.49;100.00;97949.53;4998461;28;20891;-45
2023/10/26 06:59:30;;;;;;;4.13;1.67;;;;;;;9.49;100.00;97949.53;5016260;28;20030;-44
2023/10/26 07:02:17;;;;;;;1.67;1.33;;;;;;;9.49;100.00;97950.34;4995450;28;20566;-45
2023/10/26 07:05:04;;;;;;;4.68;2.10;;;;;;;9.50;100.00;97951.91;4999293;28;20042;-45
2023/10/26 07:07:51;;;;;;;5.50;2.15;;;;;;;9.49;100.00;97944.03;5002144;28;20054;-45
2023/10/26 07:10:40;;;;;;;3.67;1.73;;;;;;;9.46;100.00;97944.81;5001947;28;20053;-46
2023/10/26 07:13:27;;;;;;;4.35;1.90;;;;;;;9.44;100.00;97952.75;4990363;28;20177;-45
2023/10/26 07:16:17;;;;;;;4.15;1.70;;;;;;;9.44;100.00;97953.53;5001722;28;20129;-45
2023/10/26 07:19:04;;;;;;;2.70;1.95;;;;;;;9.43;100.00;97951.16;5006754;28;20458;-46
2023/10/26 07:21:51;;;;;;;5.03;1.85;;;;;;;9.39;100.00;97948.44;5006550;28;20180;-47
2023/10/26 07:24:38;;;;;;;6.68;2.10;;;;;;;9.36;100.00;97951.22;5005806;28;20743;-45
2023/10/26 07:27:25;;;;;;;6.55;2.10;;;;;;;9.34;100.00;97948.09;5005749;28;20132;-51
2023/10/26 07:30:12;;;;;;;6.22;2.13;;;;;;;9.33;100.00;97952.03;4998013;28;20085;-50
2023/10/26 07:32:59;;;;;;;5.10;2.65;;;;;;;9.33;100.00;97943.75;5006004;28;20046;-48
2023/10/26 07:35:52;;;;;;;5.20;2.20;;;;;;;9.34;100.00;97948.88;5006735;28;20096;-48
2023/10/26 07:38:40;;;;;;;4.43;2.13;;;;;;;9.35;100.00;97957.91;5005255;28;20049;-44
2023/10/26 07:41:27;;;;;;;8.05;2.30;;;;;;;9.36;100.00;97942.94;5003393;28;20058;-44
2023/10/26 07:44:37;;;;;;;13.77;3.13;;;;;;;9.34;100.00;97943.34;5005177;28;20464;-44
2023/10/26 07:47:24;;;;;;;6.65;2.25;;;;;;;9.35;100.00;97944.91;5005287;28;20046;-47
2023/10/26 07:50:11;;;;;;;8.10;2.75;;;;;;;9.31;100.00;97954.41;4992708;28;20518;-45
2023/10/26 07:52:58;;;;;;;6.45;2.92;;;;;;;9.32;100.00;97947.72;5017833;28;20061;-45
2023/10/26 07:55:45;;;;;;;5.75;2.17;;;;;;;9.33;100.00;97952.03;4997896;28;20049;-47
2023/10/26 07:58:32;;;;;;;6.82;2.75;;;;;;;9.36;100.00;97948.44;5004385;28;20615;-47
2023/10/26 08:01:20;;;;;;;8.73;2.70;;;;;;;9.40;100.00;97947.22;5005529;28;20042;-45
2023/10/26 08:04:07;;;;;;;12.80;6.07;;;;;;;9.45;100.00;97954.31;5005059;28;20500;-44
2023/10/26 08:06:55;;;;;;;17.40;7.55;;;;;;;9.48;100.00;97954.28;4990012;28;20061;-45
2023/10/26 08:09:42;;;;;;;16.13;6.70;;;;;;;9.53;100.00;97944.78;4995998;28;20061;-45
2023/10/26 08:12:29;;;;;;;19.60;6.03;;;;;;;9.60;100.00;97950.25;5005584;28;20495;-45
2023/10/26 08:15:16;;;;;;;10.50;4.38;;;;;;;9.66;100.00;97943.88;5005793;28;20069;-45
2023/10/26 08:18:25;;;;;;;11.30;3.72;;;;;;;9.73;100.00;97946.59;5005393;28;20054;-44
2023/10/26 08:21:13;;;;;;;13.35;3.65;;;;;;;9.81;100.00;97933.50;5004919;28;20046;-47
2023/10/26 08:24:00;;;;;;;8.32;2.83;;;;;;;9.89;100.00;97939.75;5008901;28;20144;-45
2023/10/26 08:26:47;;;;;;;5.55;2.65;;;;;;;9.96;100.00;97939.69;5011987;28;20551;-50
2023/10/26 08:29:34;;;;;;;10.25;2.97;;;;;;;10.03;100.00;97948.72;5005782;28;20140;-44
2023/10/26 08:32:21;;;;;;;5.60;2.42;;;;;;;10.08;100.00;97953.78;5003074;28;20045;-45
2023/10/26 08:35:08;;;;;;;4.93;2.42;;;;;;;10.14;100.00;97949.41;5005393;28;20054;-46
2023/10/26 08:37:55;;;;;;;4.82;2.63;;;;;;;10.19;100.00;97948.94;5001040;28;20507;-44
2023/10/26 08:40:53;;;;;;;9.52;2.78;;;;;;;10.25;100.00;97946.53;4998682;28;20049;-45
2023/10/26 08:43:42;;;;;;;7.38;2.78;;;;;;;10.32;100.00;97950.03;5005267;28;20133;-45
2023/10/26 08:46:29;;;;;;;12.40;3.90;;;;;;;10.42;100.00;97944.78;5005863;28;20859;-45
2023/10/26 08:49:18;;;;;;;12.77;5.07;;;;;;;10.50;100.00;97954.56;5004494;28;20841;-45
2023/10/26 08:52:05;;;;;;;11.32;4.13;;;;;;;10.60;100.00;97957.22;4998235;28;20140;-46
2023/10/26 08:54:52;;;;;;;7.88;4.18;;;;;;;10.67;100.00;97953.59;5004803;28;20563;-44
2023/10/26 08:57:53;;;;;;;8.63;2.40;;;;;;;10.72;100.00;97953.91;5003851;28;20132;-45
2023/10/26 09:00:41;;;;;;;6.53;2.63;;;;;;;10.78;100.00;97957.00;4991089;28;20104;-47
2023/10/26 09:03:28;;;;;;;9.20;3.30;;;;;;;10.82;100.00;97964.06;4996887;28;20673;-46
2023/10/26 09:06:16;;;;;;;11.93;3.83;;;;;;;10.82;100.00;97953.00;5005071;28;20848;-48
2023/10/26 09:09:03;;;;;;;9.98;3.67;;;;;;;10.81;100.00;97953.41;5006347;28;20072;-46
2023/10/26 09:11:50;;;;;;;10.80;3.10;;;;;;;10.78;100.00;97952.25;5007773;28;20568;-48
2023/10/26 09:14:37;;;;;;;7.45;3.10;;;;;;;10.78;100.00;97957.00;5008456;28;20573;-45
2023/10/26 09:17:26;;;;;;;19.58;3.83;;;;;;;10.78;100.00;97951.47;5007994;28;20050;-46
2023/10/26 09:20:20;;;;;;;5.78;2.05;;;;;;;10.81;100.00;97947.88;5008533;28;20156;-44
2023/10/26 09:23:07;;;;;;;6.55;2.03;;;;;;;10.83;100.00;97948.22;5007785;28;20411;-45
2023/10/26 09:25:59;;;;;;;3.15;1.80;;;;;;;10.82;100.00;97946.69;5008171;28;20121;-45
2023/10/26 09:28:53;;;;;;;9.65;2.28;;;;;;;10.79;100.00;97947.50;5007209;28;20516;-47
2023/10/26 09:31:52;;;;;;;5.50;1.85;;;;;;;10.74;100.00;97945.19;5006936;28;20136;-47
2023/10/26 09:34:42;;;;;;;4.03;1.70;;;;;;;10.73;100.00;97947.19;5007612;28;20139;-45
2023/10/26 09:37:30;;;;;;;4.20;2.30;;;;;;;10.75;100.00;97947.53;4989556;28;20038;-45
2023/10/26 09:40:19;;;;;;;4.28;2.13;;;;;;;10.79;100.00;97945.53;5005402;28;20048;-48
2023/10/26 09:43:08;;;;;;;8.27;2.63;;;;;;;10.83;100.00;97945.47;5008483;28;20054;-45
2023/10/26 09:45:55;;;;;;;11.15;3.78;;;;;;;10.85;100.00;97941.09;5007791;28;20046;-44
2023/10/26 09:48:42;;;;;;;7.95;2.75;;;;;;;10.85;100.00;97941.09;5006013;28;20046;-46
2023/10/26 09:51:29;;;;;;;5.80;2.47;;;;;;;10.87;100.00;97937.91;5007476;28;20037;-45
2023/10/26 09:54:28;;;;;;;3.58;1.30;;;;;;;10.88;100.00;97934.72;5006361;28;20573;-47
2023/10/26 09:57:56;;;;;;;6.50;1.00;;;;;;;10.91;100.00;97930.34;5008834;28;20050;-45
2023/10/26 10:00:43;;;;;;;5.55;0.90;;;;;;;10.92;100.00;97935.47;5006961;28;20049;-46
2023/10/26 10:03:43;;;;;;;11.50;1.60;;;;;;;10.94;100.00;97932.28;5008361;28;20046;-45
2023/10/26 10:06:55;;;;;;;6.10;1.58;;;;;;;10.96;100.00;97935.44;5007049;28;20065;-47
2023/10/26 10:10:00;;;;;;;18.42;2.17;;;;;;;10.95;100.00;97936.63;5007558;28;20053;-46
2023/10/26 10:12:52;;;;;;;2.78;0.85;;;;;;;10.91;100.00;97941.41;5007982;28;20503;-45
2023/10/26 10:15:39;;;;;;;5.30;1.23;;;;;;;10.86;100.00;97941.88;5006352;28;20884;-45
2023/10/26 10:18:29;;;;;;;4.75;1.35;;;;;;;10.83;100.00;97939.94;5007609;28;20050;-46
2023/10/26 10:21:35;;;;;;;2.28;1.13;;;;;;;10.80;100.00;97938.00;5006865;28;20053;-49
2023/10/26 10:24:37;;;;;;;4.50;0.85;;;;;;;10.78;100.00;97938.41;5006274;28;20129;-45
2023/10/26 10:27:24;;;;;;;16.38;1.73;;;;;;;10.80;100.00;97935.25;5006416;28;20189;-46
2023/10/26 10:30:11;;;;;;;9.57;1.55;;;;;;;10.80;100.00;97926.94;5006856;28;20050;-45
2023/10/26 10:33:01;;;;;;;2.83;0.85;;;;;;;10.80;100.00;97932.47;5006972;28;20144;-44
2023/10/26 10:35:59;;;;;;;4.75;0.82;;;;;;;10.82;100.00;97935.59;5006983;28;20064;-45
2023/10/26 10:39:22;;;;;;;4.72;1.23;;;;;;;10.89;100.00;97924.44;5007174;28;20143;-49
2023/10/26 10:42:11;;;;;;;8.48;1.20;;;;;;;10.94;100.00;97927.53;4993176;28;20045;-49
2023/10/26 10:45:00;;;;;;;9.30;1.73;;;;;;;10.99;100.00;97917.97;5006471;28;20073;-47
2023/10/26 10:47:47;;;;;;;8.10;1.80;;;;;;;11.03;100.00;97924.25;5005825;28;20404;-46
2023/10/26 10:50:34;;;;;;;7.35;1.45;;;;;;;11.10;100.00;97920.59;5007156;28;20128;-46
2023/10/26 10:53:21;;;;;;;5.05;0.95;;;;;;;11.19;100.00;97921.66;5011451;28;20042;-48
2023/10/26 10:56:08;;;;;;;14.30;2.03;;;;;;;11.30;100.00;97922.28;5005791;28;20129;-45
2023/10/26 10:58:56;;;;;;;6.80;1.58;;;;;;;11.38;100.00;97918.22;5006534;28;20042;-45
2023/10/26 11:01:43;;;;;;;6.65;1.52;;;;;;;11.39;100.00;97925.31;5013618;28;20053;-45
2023/10/26 11:04:30;;;;;;;4.40;1.13;;;;;;;11.39;100.00;97917.00;5009711;28;20060;-45
2023/10/26 11:07:28;;;;;;;6.05;1.60;;;;;;;11.40;100.00;97915.00;5000314;28;20064;-53
2023/10/26 11:10:17;;;;;;;8.23;1.30;;;;;;;11.40;100.00;97909.47;4996493;28;20112;-45
2023/10/26 11:13:05;;;;;;;3.17;1.05;;;;;;;11.42;100.00;97910.63;5005449;28;20572;-49
2023/10/26 11:15:52;;;;;;;13.73;1.70;;;;;;;11.43;100.00;97908.63;5006934;28;20048;-47
2023/10/26 11:18:39;;;;;;;5.88;1.35;;;;;;;11.42;100.00;97910.63;5005470;28;20056;-45
2023/10/26 11:21:26;;;;;;;7.70;1.75;;;;;;;11.45;100.00;97901.47;4995088;28;20054;-47
2023/10/26 11:24:18;;;;;;;6.78;1.60;;;;;;;11.49;100.00;97896.66;5005049;28;20046;-44
2023/10/26 11:27:13;;;;;;;7.75;1.50;;;;;;;11.56;100.00;97890.22;5005698;28;20119;-50
2023/10/26 11:30:03;;;;;;;7.50;1.58;;;;;;;11.65;100.00;97884.16;5005373;28;20518;-48
2023/10/26 11:32:51;;;;;;;5.60;1.30;;;;;;;11.76;100.00;97888.31;5006596;28;20636;-48
2023/10/26 11:35:44;;;;;;;7.18;1.30;;;;;;;11.89;100.00;97891.25;5005919;28;20053;-47
2023/10/26 11:38:32;;;;;;;5.47;1.30;;;;;;;11.96;100.00;97886.41;5018126;28;20049;-45
2023/10/26 11:41:27;;;;;;;12.30;2.40;;;;;;;12.02;100.00;97881.16;5006470;28;20077;-48
2023/10/26 11:44:25;;;;;;;5.88;1.75;;;;;;;12.10;100.00;97879.78;4998826;28;20089;-45
2023/10/26 11:47:12;;;;;;;9.70;1.70;;;;;;;12.20;100.00;97873.28;4992965;28;20046;-47
2023/10/26 11:50:00;;;;;;;12.55;1.70;;;;;;;12.29;100.00;97864.38;5005845;28;20068;-47
2023/10/26 11:52:48;;;;;;;10.18;1.65;;;;;;;12.32;100.00;97869.84;5004205;28;20049;-45
2023/10/26 11:55:35;;;;;;;8.93;1.42;;;;;;;12.31;100.00;97873.81;5005335;28;20474;-47
2023/10/26 11:58:22;;;;;;;7.10;1.33;;;;;;;12.30;100.00;97857.63;5005614;28;20177;-45
2023/10/26 12:01:09;;;;;;;6.85;1.48;;;;;;;12.30;100.00;97855.63;5005203;28;20766;-45
2023/10/26 12:03:56;;;;;;;7.72;2.03;;;;;;;12.29;100.00;97859.59;5006028;28;20127;-45
2023/10/26 12:06:45;;;;;;;11.27;1.67;;;;;;;12.30;100.00;97860.38;4994660;28;20042;-46
2023/10/26 12:09:33;;;;;;;8.02;2.03;;;;;;;12.34;100.00;97853.56;5005124;28;20054;-44
2023/10/26 12:12:20;;;;;;;10.95;2.47;;;;;;;12.40;100.00;97856.63;5020048;28;20061;-51
2023/10/26 12:15:08;;;;;;;8.60;1.70;;;;;;;12.44;100.00;97849.81;4997030;28;20071;-49
2023/10/26 12:17:55;;;;;;;10.00;3.08;;;;;;;12.52;100.00;97850.44;5006363;28;20084;-46
2023/10/26 12:20:42;;;;;;;10.23;2.28;;;;;;;12.63;100.00;97849.00;5006093;28;20042;-47
2023/10/26 12:23:29;;;;;;;11.70;2.28;;;;;;;12.72;100.00;97848.41;5003899;28;20042;-44
2023/10/26 12:26:16;;;;;;;8.98;2.75;;;;;;;12.81;100.00;97845.84;5002746;28;20097;-46
2023/10/26 12:29:07;;;;;;;12.95;2.20;;;;;;;12.91;100.00;97847.59;5005966;28;20038;-46
2023/10/26 12:31:54;;;;;;;12.35;2.33;;;;;;;12.96;100.00;97846.28;5003706;28;21930;-44
2023/10/26 12:34:41;;;;;;;6.50;2.10;;;;;;;12.99;100.00;97839.88;5012428;28;20046;-48
2023/10/26 12:37:29;;;;;;;6.30;1.60;;;;;;;13.04;100.00;97839.38;5004593;28;20103;-45
2023/10/26 12:40:18;;;;;;;9.32;1.90;;;;;;;13.16;100.00;97833.16;5004462;28;20096;-45
2023/10/26 12:43:05;;;;;;;6.85;2.28;;;;;;;13.21;100.00;97832.66;4993289;28;20133;-45
2023/10/26 12:45:52;;;;;;;6.38;1.23;;;;;;;13.13;100.00;97834.81;5009389;28;20042;-46
2023/10/26 12:48:39;;;;;;;8.75;1.98;;;;;;;13.00;100.00;97841.47;5021557;28;20053;-45
2023/10/26 12:51:26;;;;;;;9.82;1.33;;;;;;;12.87;100.00;97832.25;5009547;28;20385;-45
2023/10/26 12:54:13;;;;;;;6.07;1.70;;;;;;;12.75;100.00;97834.47;5009029;28;20042;-48
2023/10/26 12:57:00;;;;;;;6.45;1.40;;;;;;;12.63;100.00;97829.56;5008413;28;20159;-45
2023/10/26 12:59:47;;;;;;;7.15;1.58;;;;;;;12.51;100.00;97827.44;5021841;28;20049;-45
2023/10/26 13:02:36;;;;;;;9.13;1.90;;;;;;;12.47;100.00;97825.97;5007090;28;20432;-47
2023/10/26 13:05:23;;;;;;;13.95;1.70;;;;;;;12.48;100.00;97821.97;5007736;28;20049;-46